Главная страница
METAR-TAF:

METAR-TAF

Аэропорты :

Рига, Латвия

широта: 56-55N, долгота: 023-58E, высота над уровнем моря: 10 м

Текущие метеонаблюдения

Эта сводка был подготовлена 32 минут назад, в 19:20 UTC
Ветер 7 Узел от восточно-северо-восточный
Температура 8°C
Влажность 71%
Давление 1017 hPa
Видимость 10 км и более
Нет облачности ниже 1500 м, и нет кучево-дождевой облачности

METAR: EVRA 171920Z 06007KT CAVOK 08/03 Q1017 NOSIG

Время: 22:52 (19:52 UTC)

Прогноз

Эта сводка был подготовлена 2 часа и 52 минут назад, в 17:00 UTC
Прогноз действительный с 17-го 18 UTC до 18-го 18 UTC
Ветер 7 Узел от восточно-северо-восточный
Видимость 10 км и более
Нет облачности ниже 1500 м, и нет кучево-дождевой облачности
временами
С 18-го 09 UTC до 18-го 12 UTC
Ветер 15 Узел от восточно-северо-восточный с порывами до 26 Узел

TAF: EVRA 171700Z 1718/1818 07007KT CAVOK TEMPO 1809/1812 06015G26KT

Метеонаблюдения и прогнозы для более 4000 аэропортов (сводки METAR и TAF).

Имеющиеся станции представлены на карте желтыми и красными точками.

Чтобы увидеть название станции, наведите на нее мышь.

Затем щелкните, чтобы увидеть метеонаблюдения и метеопрогнозы.

Управление картой: чтобы увеличить масштаб, щелкните зеленые кнопки с черным крестиком; чтобы уменьшить масштаб, щелкните зеленую кнопку с тире; для просмотра соседних карт щелкайте зеленые стрелки.


METAR-TAF: